sensor_id;sensor_type;location;lat;lon;timestamp;pressure;altitude;pressure_sealevel;temperature;humidity
50790;BME280;37287;47.554;7.844;2023-07-20T00:02:04;97768.50;;;19.97;68.90
50790;BME280;37287;47.554;7.844;2023-07-20T00:04:49;97773.00;;;19.90;69.02
50790;BME280;37287;47.554;7.844;2023-07-20T00:07:19;97773.13;;;19.87;69.03
50790;BME280;37287;47.554;7.844;2023-07-20T00:09:48;97769.19;;;19.88;69.21
50790;BME280;37287;47.554;7.844;2023-07-20T00:12:15;97777.44;;;19.88;69.00
50790;BME280;37287;47.554;7.844;2023-07-20T00:14:42;97776.78;;;19.84;68.69
50790;BME280;37287;47.554;7.844;2023-07-20T00:17:10;97779.50;;;19.84;68.83
50790;BME280;37287;47.554;7.844;2023-07-20T00:19:39;97781.38;;;19.87;68.66
50790;BME280;37287;47.554;7.844;2023-07-20T00:22:06;97773.91;;;19.87;68.63
50790;BME280;37287;47.554;7.844;2023-07-20T00:24:32;97776.63;;;19.87;69.23
50790;BME280;37287;47.554;7.844;2023-07-20T00:26:59;97775.09;;;19.86;68.97
50790;BME280;37287;47.554;7.844;2023-07-20T00:29:27;97781.03;;;19.85;69.36
50790;BME280;37287;47.554;7.844;2023-07-20T00:31:56;97781.59;;;19.80;69.31
50790;BME280;37287;47.554;7.844;2023-07-20T00:34:22;97780.03;;;19.79;70.09
50790;BME280;37287;47.554;7.844;2023-07-20T00:36:49;97784.41;;;19.76;69.96
50790;BME280;37287;47.554;7.844;2023-07-20T00:39:16;97780.56;;;19.73;70.35
50790;BME280;37287;47.554;7.844;2023-07-20T00:41:42;97780.56;;;19.73;70.13
50790;BME280;37287;47.554;7.844;2023-07-20T00:44:09;97773.22;;;19.70;70.50
50790;BME280;37287;47.554;7.844;2023-07-20T00:46:36;97774.41;;;19.69;70.50
50790;BME280;37287;47.554;7.844;2023-07-20T00:49:02;97776.84;;;19.67;70.68
50790;BME280;37287;47.554;7.844;2023-07-20T00:51:31;97779.69;;;19.64;71.09
50790;BME280;37287;47.554;7.844;2023-07-20T00:54:01;97779.47;;;19.58;71.13
50790;BME280;37287;47.554;7.844;2023-07-20T00:56:29;97775.50;;;19.59;71.42
50790;BME280;37287;47.554;7.844;2023-07-20T00:58:56;97785.31;;;19.60;71.85
50790;BME280;37287;47.554;7.844;2023-07-20T01:01:23;97781.88;;;19.56;71.62
50790;BME280;37287;47.554;7.844;2023-07-20T01:03:50;97779.22;;;19.52;71.82
50790;BME280;37287;47.554;7.844;2023-07-20T01:06:34;97766.75;;;19.51;73.43
50790;BME280;37287;47.554;7.844;2023-07-20T01:09:13;97759.91;;;19.56;73.69
50790;BME280;37287;47.554;7.844;2023-07-20T01:14:25;97768.47;;;19.58;70.55
50790;BME280;37287;47.554;7.844;2023-07-20T01:16:54;97774.84;;;19.55;70.20
50790;BME280;37287;47.554;7.844;2023-07-20T01:19:21;97773.31;;;19.54;72.05
50790;BME280;37287;47.554;7.844;2023-07-20T01:22:09;97769.56;;;19.48;72.93
50790;BME280;37287;47.554;7.844;2023-07-20T01:25:08;97770.66;;;19.37;74.53
50790;BME280;37287;47.554;7.844;2023-07-20T01:28:29;97769.25;;;19.33;74.87
50790;BME280;37287;47.554;7.844;2023-07-20T01:33:40;97779.31;;;19.23;72.74
50790;BME280;37287;47.554;7.844;2023-07-20T01:36:08;97782.50;;;19.21;73.05
50790;BME280;37287;47.554;7.844;2023-07-20T01:38:36;97776.22;;;19.21;73.65
50790;BME280;37287;47.554;7.844;2023-07-20T01:41:05;97777.44;;;19.20;74.02
50790;BME280;37287;47.554;7.844;2023-07-20T01:43:32;97774.44;;;19.14;73.96
50790;BME280;37287;47.554;7.844;2023-07-20T01:46:01;97773.16;;;19.19;75.47
50790;BME280;37287;47.554;7.844;2023-07-20T01:48:34;97765.16;;;19.12;74.59
50790;BME280;37287;47.554;7.844;2023-07-20T01:51:01;97764.78;;;19.10;75.12
50790;BME280;37287;47.554;7.844;2023-07-20T01:53:27;97769.38;;;19.00;74.55
50790;BME280;37287;47.554;7.844;2023-07-20T01:55:58;97764.31;;;18.98;74.98
50790;BME280;37287;47.554;7.844;2023-07-20T01:58:25;97764.00;;;18.96;75.05
50790;BME280;37287;47.554;7.844;2023-07-20T02:00:52;97753.34;;;18.98;75.95
50790;BME280;37287;47.554;7.844;2023-07-20T02:03:18;97758.41;;;19.00;76.47
50790;BME280;37287;47.554;7.844;2023-07-20T02:05:45;97761.13;;;18.87;75.48
50790;BME280;37287;47.554;7.844;2023-07-20T02:08:12;97758.44;;;18.83;75.85
50790;BME280;37287;47.554;7.844;2023-07-20T02:10:45;97757.88;;;18.76;76.33
50790;BME280;37287;47.554;7.844;2023-07-20T02:13:13;97766.19;;;18.72;76.33
50790;BME280;37287;47.554;7.844;2023-07-20T02:15:41;97752.06;;;18.73;76.52
50790;BME280;37287;47.554;7.844;2023-07-20T02:18:12;97760.59;;;18.76;77.08
50790;BME280;37287;47.554;7.844;2023-07-20T02:20:41;97761.19;;;18.83;76.58
50790;BME280;37287;47.554;7.844;2023-07-20T02:23:08;97757.94;;;18.88;76.77
50790;BME280;37287;47.554;7.844;2023-07-20T02:25:37;97762.13;;;18.93;77.34
50790;BME280;37287;47.554;7.844;2023-07-20T02:28:04;97765.63;;;18.94;77.74
50790;BME280;37287;47.554;7.844;2023-07-20T02:30:31;97767.28;;;18.91;74.85
50790;BME280;37287;47.554;7.844;2023-07-20T02:33:03;97763.66;;;18.94;73.77
50790;BME280;37287;47.554;7.844;2023-07-20T02:35:32;97771.00;;;18.97;76.02
50790;BME280;37287;47.554;7.844;2023-07-20T02:37:59;97766.06;;;18.92;75.88
50790;BME280;37287;47.554;7.844;2023-07-20T02:40:29;97765.28;;;18.92;75.07
50790;BME280;37287;47.554;7.844;2023-07-20T02:42:57;97767.28;;;18.91;74.92
50790;BME280;37287;47.554;7.844;2023-07-20T02:45:24;97763.41;;;18.88;73.69
50790;BME280;37287;47.554;7.844;2023-07-20T02:47:51;97769.25;;;18.90;73.27
50790;BME280;37287;47.554;7.844;2023-07-20T02:50:18;97770.88;;;18.88;73.20
50790;BME280;37287;47.554;7.844;2023-07-20T02:52:46;97772.88;;;18.87;74.16
50790;BME280;37287;47.554;7.844;2023-07-20T02:55:24;97776.78;;;18.86;73.94
50790;BME280;37287;47.554;7.844;2023-07-20T02:57:50;97782.25;;;18.86;77.12
50790;BME280;37287;47.554;7.844;2023-07-20T03:00:18;97775.75;;;18.80;77.35
50790;BME280;37287;47.554;7.844;2023-07-20T03:02:48;97775.50;;;18.74;78.76
50790;BME280;37287;47.554;7.844;2023-07-20T03:05:17;97769.78;;;18.69;79.57
50790;BME280;37287;47.554;7.844;2023-07-20T03:07:46;97771.34;;;18.70;80.00
50790;BME280;37287;47.554;7.844;2023-07-20T03:10:12;97773.31;;;18.69;80.66
50790;BME280;37287;47.554;7.844;2023-07-20T03:12:39;97772.63;;;18.65;80.22
50790;BME280;37287;47.554;7.844;2023-07-20T03:15:08;97765.81;;;18.57;77.72
50790;BME280;37287;47.554;7.844;2023-07-20T03:17:37;97767.34;;;18.58;76.80
50790;BME280;37287;47.554;7.844;2023-07-20T03:20:04;97761.03;;;18.45;76.38
50790;BME280;37287;47.554;7.844;2023-07-20T03:22:35;97766.72;;;18.21;77.05
50790;BME280;37287;47.554;7.844;2023-07-20T03:25:05;97761.50;;;18.10;78.11
50790;BME280;37287;47.554;7.844;2023-07-20T03:27:32;97774.09;;;18.24;77.90
50790;BME280;37287;47.554;7.844;2023-07-20T03:29:58;97766.63;;;18.25;77.17
50790;BME280;37287;47.554;7.844;2023-07-20T03:32:25;97776.03;;;18.24;77.43
50790;BME280;37287;47.554;7.844;2023-07-20T03:34:52;97780.00;;;18.23;77.66
50790;BME280;37287;47.554;7.844;2023-07-20T03:37:24;97767.75;;;18.11;77.29
50790;BME280;37287;47.554;7.844;2023-07-20T03:39:52;97783.66;;;17.99;77.57
50790;BME280;37287;47.554;7.844;2023-07-20T03:42:19;97777.97;;;17.74;78.77
50790;BME280;37287;47.554;7.844;2023-07-20T03:44:46;97783.38;;;17.77;79.01
50790;BME280;37287;47.554;7.844;2023-07-20T03:47:14;97778.72;;;17.74;79.29
50790;BME280;37287;47.554;7.844;2023-07-20T03:49:41;97779.69;;;17.84;78.73
50790;BME280;37287;47.554;7.844;2023-07-20T03:52:08;97784.78;;;17.65;78.93
50790;BME280;37287;47.554;7.844;2023-07-20T03:54:35;97777.78;;;17.64;79.36
50790;BME280;37287;47.554;7.844;2023-07-20T03:57:03;97779.97;;;17.53;79.53
50790;BME280;37287;47.554;7.844;2023-07-20T03:59:30;97785.44;;;17.53;80.07
50790;BME280;37287;47.554;7.844;2023-07-20T04:01:59;97794.41;;;17.74;79.73
50790;BME280;37287;47.554;7.844;2023-07-20T04:04:25;97791.75;;;17.86;78.94
50790;BME280;37287;47.554;7.844;2023-07-20T04:06:52;97796.34;;;17.93;78.33
50790;BME280;37287;47.554;7.844;2023-07-20T04:09:23;97790.69;;;18.00;79.15
50790;BME280;37287;47.554;7.844;2023-07-20T04:11:49;97789.81;;;18.03;79.45
50790;BME280;37287;47.554;7.844;2023-07-20T04:14:16;97799.94;;;18.07;81.64
50790;BME280;37287;47.554;7.844;2023-07-20T04:16:46;97800.72;;;18.07;81.56
50790;BME280;37287;47.554;7.844;2023-07-20T04:19:13;97796.34;;;18.10;83.19
50790;BME280;37287;47.554;7.844;2023-07-20T04:21:40;97805.22;;;18.14;82.37
50790;BME280;37287;47.554;7.844;2023-07-20T04:24:09;97791.22;;;18.12;84.51
50790;BME280;37287;47.554;7.844;2023-07-20T04:26:36;97796.34;;;18.10;84.06
50790;BME280;37287;47.554;7.844;2023-07-20T04:29:03;97796.69;;;18.12;84.62
50790;BME280;37287;47.554;7.844;2023-07-20T04:31:30;97797.38;;;18.16;86.03
50790;BME280;37287;47.554;7.844;2023-07-20T04:33:59;97798.38;;;18.22;83.76
50790;BME280;37287;47.554;7.844;2023-07-20T04:36:26;97802.50;;;18.30;85.11
50790;BME280;37287;47.554;7.844;2023-07-20T04:38:52;97797.88;;;18.27;84.56
50790;BME280;37287;47.554;7.844;2023-07-20T04:41:21;97792.72;;;18.29;84.71
50790;BME280;37287;47.554;7.844;2023-07-20T04:43:51;97790.00;;;18.29;83.92
50790;BME280;37287;47.554;7.844;2023-07-20T04:46:20;97789.91;;;18.33;81.73
50790;BME280;37287;47.554;7.844;2023-07-20T04:48:48;97791.13;;;18.78;81.51
50790;BME280;37287;47.554;7.844;2023-07-20T04:51:17;97789.09;;;19.24;80.87
50790;BME280;37287;47.554;7.844;2023-07-20T04:53:49;97788.38;;;19.62;78.42
50790;BME280;37287;47.554;7.844;2023-07-20T04:56:15;97794.56;;;20.05;80.12
50790;BME280;37287;47.554;7.844;2023-07-20T04:58:42;97791.72;;;20.43;80.48
50790;BME280;37287;47.554;7.844;2023-07-20T05:01:10;97792.13;;;20.68;80.01
50790;BME280;37287;47.554;7.844;2023-07-20T05:03:37;97792.19;;;20.99;79.57
50790;BME280;37287;47.554;7.844;2023-07-20T05:06:04;97787.81;;;21.33;78.59
50790;BME280;37287;47.554;7.844;2023-07-20T05:08:35;97786.63;;;21.66;78.37
50790;BME280;37287;47.554;7.844;2023-07-20T05:11:01;97794.41;;;21.89;78.12
50790;BME280;37287;47.554;7.844;2023-07-20T05:13:28;97790.31;;;22.12;78.30
50790;BME280;37287;47.554;7.844;2023-07-20T05:15:55;97800.06;;;22.36;77.75
50790;BME280;37287;47.554;7.844;2023-07-20T05:18:24;97788.41;;;22.59;77.33
50790;BME280;37287;47.554;7.844;2023-07-20T05:20:51;97787.03;;;22.92;76.68
50790;BME280;37287;47.554;7.844;2023-07-20T05:23:24;97793.16;;;23.14;76.55
50790;BME280;37287;47.554;7.844;2023-07-20T05:25:55;97793.16;;;23.33;75.34
50790;BME280;37287;47.554;7.844;2023-07-20T05:28:26;97792.00;;;23.58;75.52
50790;BME280;37287;47.554;7.844;2023-07-20T05:31:05;97791.56;;;23.60;73.44
50790;BME280;37287;47.554;7.844;2023-07-20T05:33:32;97795.22;;;23.57;72.34
50790;BME280;37287;47.554;7.844;2023-07-20T05:35:59;97787.47;;;23.37;71.94
50790;BME280;37287;47.554;7.844;2023-07-20T05:38:28;97794.03;;;23.48;70.88
50790;BME280;37287;47.554;7.844;2023-07-20T05:40:59;97790.81;;;23.41;70.67
50790;BME280;37287;47.554;7.844;2023-07-20T05:43:26;97802.53;;;23.17;72.46
50790;BME280;37287;47.554;7.844;2023-07-20T05:45:57;97802.66;;;23.32;72.11
50790;BME280;37287;47.554;7.844;2023-07-20T05:48:24;97791.81;;;23.71;70.30
50790;BME280;37287;47.554;7.844;2023-07-20T05:50:50;97795.66;;;24.07;68.26
50790;BME280;37287;47.554;7.844;2023-07-20T05:53:19;97792.03;;;24.49;67.56
50790;BME280;37287;47.554;7.844;2023-07-20T05:55:52;97791.44;;;24.69;66.44
50790;BME280;37287;47.554;7.844;2023-07-20T05:58:19;97788.56;;;24.64;68.13
50790;BME280;37287;47.554;7.844;2023-07-20T06:00:48;97788.88;;;24.66;67.40
50790;BME280;37287;47.554;7.844;2023-07-20T06:03:15;97795.63;;;24.65;65.99
50790;BME280;37287;47.554;7.844;2023-07-20T06:05:45;97796.38;;;24.17;65.60
50790;BME280;37287;47.554;7.844;2023-07-20T06:08:13;97788.31;;;24.04;65.35
50790;BME280;37287;47.554;7.844;2023-07-20T06:10:40;97791.09;;;23.95;65.72
50790;BME280;37287;47.554;7.844;2023-07-20T06:13:12;97786.50;;;23.92;64.45
50790;BME280;37287;47.554;7.844;2023-07-20T06:15:42;97780.44;;;23.69;65.10
50790;BME280;37287;47.554;7.844;2023-07-20T06:18:09;97786.41;;;23.25;66.55
50790;BME280;37287;47.554;7.844;2023-07-20T06:20:36;97780.75;;;22.91;67.15
50790;BME280;37287;47.554;7.844;2023-07-20T06:23:07;97788.75;;;22.80;67.14
50790;BME280;37287;47.554;7.844;2023-07-20T06:25:34;97786.59;;;22.47;67.19
50790;BME280;37287;47.554;7.844;2023-07-20T06:28:00;97785.13;;;22.24;67.75
50790;BME280;37287;47.554;7.844;2023-07-20T06:30:27;97779.88;;;21.98;69.43
50790;BME280;37287;47.554;7.844;2023-07-20T06:32:54;97788.59;;;21.87;68.73
50790;BME280;37287;47.554;7.844;2023-07-20T06:35:21;97789.72;;;21.68;70.04
50790;BME280;37287;47.554;7.844;2023-07-20T06:37:56;97783.56;;;21.32;69.97
50790;BME280;37287;47.554;7.844;2023-07-20T06:40:46;97796.34;;;21.26;71.04
50790;BME280;37287;47.554;7.844;2023-07-20T06:43:17;97794.13;;;21.34;70.92
50790;BME280;37287;47.554;7.844;2023-07-20T06:45:54;97791.50;;;21.61;70.29
50790;BME280;37287;47.554;7.844;2023-07-20T06:48:25;97793.75;;;21.22;71.44
50790;BME280;37287;47.554;7.844;2023-07-20T06:50:51;97800.00;;;21.23;71.98
50790;BME280;37287;47.554;7.844;2023-07-20T06:53:18;97797.06;;;21.39;70.69
50790;BME280;37287;47.554;7.844;2023-07-20T06:55:46;97787.28;;;21.47;70.01
50790;BME280;37287;47.554;7.844;2023-07-20T06:58:18;97780.81;;;21.32;70.24
50790;BME280;37287;47.554;7.844;2023-07-20T07:00:45;97790.53;;;21.24;70.97
50790;BME280;37287;47.554;7.844;2023-07-20T07:03:14;97793.75;;;21.22;70.17
50790;BME280;37287;47.554;7.844;2023-07-20T07:05:40;97790.66;;;21.20;70.46
50790;BME280;37287;47.554;7.844;2023-07-20T07:08:07;97791.13;;;21.19;70.48
50790;BME280;37287;47.554;7.844;2023-07-20T07:10:36;97797.00;;;21.08;71.16
50790;BME280;37287;47.554;7.844;2023-07-20T07:13:03;97796.25;;;21.07;71.16
50790;BME280;37287;47.554;7.844;2023-07-20T07:15:31;97800.28;;;21.16;70.65
50790;BME280;37287;47.554;7.844;2023-07-20T07:18:00;97787.34;;;21.25;70.64
50790;BME280;37287;47.554;7.844;2023-07-20T07:20:27;97791.19;;;21.28;70.80
50790;BME280;37287;47.554;7.844;2023-07-20T07:22:54;97789.81;;;21.33;71.07
50790;BME280;37287;47.554;7.844;2023-07-20T07:25:24;97796.44;;;21.44;70.90
50790;BME280;37287;47.554;7.844;2023-07-20T07:27:52;97791.28;;;21.46;70.38
50790;BME280;37287;47.554;7.844;2023-07-20T07:30:19;97794.66;;;21.51;70.72
50790;BME280;37287;47.554;7.844;2023-07-20T07:32:48;97799.31;;;21.63;70.18
50790;BME280;37287;47.554;7.844;2023-07-20T07:35:16;97794.16;;;21.74;69.89
50790;BME280;37287;47.554;7.844;2023-07-20T07:37:48;97796.34;;;21.79;69.02
50790;BME280;37287;47.554;7.844;2023-07-20T07:40:33;97793.00;;;21.85;70.00
50790;BME280;37287;47.554;7.844;2023-07-20T07:43:01;97789.44;;;22.15;68.85
50790;BME280;37287;47.554;7.844;2023-07-20T07:45:34;97788.59;;;22.56;66.67
50790;BME280;37287;47.554;7.844;2023-07-20T07:48:02;97787.34;;;22.47;66.80
50790;BME280;37287;47.554;7.844;2023-07-20T07:50:28;97781.69;;;22.51;66.90
50790;BME280;37287;47.554;7.844;2023-07-20T07:52:57;97781.38;;;22.67;66.15
50790;BME280;37287;47.554;7.844;2023-07-20T07:55:25;97778.78;;;22.82;65.52
50790;BME280;37287;47.554;7.844;2023-07-20T07:57:53;97773.88;;;22.87;65.54
50790;BME280;37287;47.554;7.844;2023-07-20T08:00:19;97778.03;;;22.82;65.03
50790;BME280;37287;47.554;7.844;2023-07-20T08:02:46;97774.81;;;22.65;65.54
50790;BME280;37287;47.554;7.844;2023-07-20T08:05:16;97779.69;;;22.70;64.38
50790;BME280;37287;47.554;7.844;2023-07-20T08:07:47;97780.94;;;22.78;64.26
50790;BME280;37287;47.554;7.844;2023-07-20T08:10:13;97785.34;;;22.94;62.92
50790;BME280;37287;47.554;7.844;2023-07-20T08:12:40;97791.16;;;23.06;61.58
50790;BME280;37287;47.554;7.844;2023-07-20T08:15:11;97784.28;;;23.01;61.52
50790;BME280;37287;47.554;7.844;2023-07-20T08:17:37;97783.06;;;22.93;62.03
50790;BME280;37287;47.554;7.844;2023-07-20T08:20:05;97775.69;;;23.08;61.89
50790;BME280;37287;47.554;7.844;2023-07-20T08:22:34;97771.88;;;23.15;60.27
50790;BME280;37287;47.554;7.844;2023-07-20T08:25:01;97780.91;;;22.97;60.49
50790;BME280;37287;47.554;7.844;2023-07-20T08:27:27;97772.66;;;22.88;61.09
50790;BME280;37287;47.554;7.844;2023-07-20T08:29:54;97771.56;;;22.76;61.18
50790;BME280;37287;47.554;7.844;2023-07-20T08:32:20;97776.47;;;22.99;59.54
50790;BME280;37287;47.554;7.844;2023-07-20T08:34:47;97772.91;;;23.27;57.70
50790;BME280;37287;47.554;7.844;2023-07-20T08:37:14;97770.13;;;23.27;58.66
50790;BME280;37287;47.554;7.844;2023-07-20T08:39:40;97773.53;;;23.22;58.66
50790;BME280;37287;47.554;7.844;2023-07-20T08:42:07;97773.22;;;23.01;58.86
50790;BME280;37287;47.554;7.844;2023-07-20T08:44:35;97772.47;;;22.91;59.19
50790;BME280;37287;47.554;7.844;2023-07-20T08:47:03;97770.47;;;22.92;59.02
50790;BME280;37287;47.554;7.844;2023-07-20T08:49:34;97772.34;;;23.13;57.41
50790;BME280;37287;47.554;7.844;2023-07-20T08:52:01;97771.69;;;23.00;58.20
50790;BME280;37287;47.554;7.844;2023-07-20T08:54:30;97765.88;;;22.89;58.61
50790;BME280;37287;47.554;7.844;2023-07-20T08:57:04;97767.38;;;23.08;58.95
50790;BME280;37287;47.554;7.844;2023-07-20T08:59:36;97758.75;;;23.43;57.94
50790;BME280;37287;47.554;7.844;2023-07-20T09:02:04;97758.66;;;23.71;57.28
50790;BME280;37287;47.554;7.844;2023-07-20T09:04:33;97756.09;;;23.92;56.88
50790;BME280;37287;47.554;7.844;2023-07-20T09:07:01;97753.91;;;24.05;57.00
50790;BME280;37287;47.554;7.844;2023-07-20T09:09:28;97750.06;;;24.27;56.20
50790;BME280;37287;47.554;7.844;2023-07-20T09:11:55;97753.16;;;24.44;55.39
50790;BME280;37287;47.554;7.844;2023-07-20T09:14:23;97749.53;;;24.13;56.21
50790;BME280;37287;47.554;7.844;2023-07-20T09:16:53;97746.28;;;23.91;56.30
50790;BME280;37287;47.554;7.844;2023-07-20T09:19:21;97750.41;;;23.86;56.20
50790;BME280;37287;47.554;7.844;2023-07-20T09:21:51;97750.75;;;23.88;56.39
50790;BME280;37287;47.554;7.844;2023-07-20T09:24:19;97751.69;;;24.09;55.91
50790;BME280;37287;47.554;7.844;2023-07-20T09:26:47;97738.00;;;24.54;54.34
50790;BME280;37287;47.554;7.844;2023-07-20T09:29:21;97741.91;;;24.71;53.79
50790;BME280;37287;47.554;7.844;2023-07-20T09:32:01;97745.56;;;24.93;52.09
50790;BME280;37287;47.554;7.844;2023-07-20T09:34:34;97740.31;;;24.95;51.97
50790;BME280;37287;47.554;7.844;2023-07-20T09:37:05;97738.66;;;24.73;52.93
50790;BME280;37287;47.554;7.844;2023-07-20T09:39:42;97736.91;;;24.61;52.52
50790;BME280;37287;47.554;7.844;2023-07-20T09:42:31;97732.84;;;25.16;52.19
50790;BME280;37287;47.554;7.844;2023-07-20T09:45:01;97729.59;;;25.47;51.51
50790;BME280;37287;47.554;7.844;2023-07-20T09:47:27;97728.63;;;25.50;51.25
50790;BME280;37287;47.554;7.844;2023-07-20T09:49:59;97723.75;;;25.30;50.59
50790;BME280;37287;47.554;7.844;2023-07-20T09:52:29;97733.59;;;25.46;51.58
50790;BME280;37287;47.554;7.844;2023-07-20T09:54:59;97718.66;;;25.73;50.97
50790;BME280;37287;47.554;7.844;2023-07-20T09:57:29;97726.09;;;25.67;50.48
50790;BME280;37287;47.554;7.844;2023-07-20T10:00:03;97719.66;;;25.26;51.30
50790;BME280;37287;47.554;7.844;2023-07-20T10:02:42;97717.53;;;25.50;51.13
50790;BME280;37287;47.554;7.844;2023-07-20T10:05:13;97712.88;;;25.77;50.38
50790;BME280;37287;47.554;7.844;2023-07-20T10:07:48;97710.66;;;25.61;49.54
50790;BME280;37287;47.554;7.844;2023-07-20T10:10:36;97710.50;;;25.85;49.31
50790;BME280;37287;47.554;7.844;2023-07-20T10:13:05;97704.41;;;25.66;50.45
50790;BME280;37287;47.554;7.844;2023-07-20T10:15:43;97706.53;;;25.91;49.45
50790;BME280;37287;47.554;7.844;2023-07-20T10:18:17;97697.81;;;25.99;49.40
50790;BME280;37287;47.554;7.844;2023-07-20T10:20:51;97694.81;;;25.82;49.39
50790;BME280;37287;47.554;7.844;2023-07-20T10:23:23;97687.09;;;25.71;49.93
50790;BME280;37287;47.554;7.844;2023-07-20T10:25:50;97687.09;;;25.91;49.32
50790;BME280;37287;47.554;7.844;2023-07-20T10:28:19;97682.69;;;26.00;48.95
50790;BME280;37287;47.554;7.844;2023-07-20T10:30:46;97681.03;;;26.08;48.76
50790;BME280;37287;47.554;7.844;2023-07-20T10:33:12;97675.06;;;25.95;49.37
50790;BME280;37287;47.554;7.844;2023-07-20T10:36:00;97675.50;;;26.08;48.10
50790;BME280;37287;47.554;7.844;2023-07-20T10:41:28;97677.13;;;26.00;47.54
50790;BME280;37287;47.554;7.844;2023-07-20T10:44:03;97662.41;;;25.73;48.14
50790;BME280;37287;47.554;7.844;2023-07-20T10:46:43;97668.19;;;25.90;47.67
50790;BME280;37287;47.554;7.844;2023-07-20T10:49:14;97667.66;;;26.06;48.64
50790;BME280;37287;47.554;7.844;2023-07-20T10:51:49;97673.16;;;26.21;47.88
50790;BME280;37287;47.554;7.844;2023-07-20T10:56:50;97660.19;;;25.56;48.72
50790;BME280;37287;47.554;7.844;2023-07-20T11:01:55;97665.84;;;25.47;47.79
50790;BME280;37287;47.554;7.844;2023-07-20T11:07:06;97652.59;;;25.92;47.71
50790;BME280;37287;47.554;7.844;2023-07-20T11:09:38;97649.00;;;25.86;47.46
50790;BME280;37287;47.554;7.844;2023-07-20T11:12:10;97650.09;;;25.95;47.17
50790;BME280;37287;47.554;7.844;2023-07-20T11:14:52;97646.50;;;26.09;47.05
50790;BME280;37287;47.554;7.844;2023-07-20T11:17:19;97632.66;;;26.09;47.18
50790;BME280;37287;47.554;7.844;2023-07-20T11:19:55;97639.84;;;26.21;46.75
50790;BME280;37287;47.554;7.844;2023-07-20T11:22:25;97628.81;;;26.27;47.15
50790;BME280;37287;47.554;7.844;2023-07-20T11:24:55;97632.34;;;26.28;46.05
50790;BME280;37287;47.554;7.844;2023-07-20T11:27:22;97630.69;;;26.15;46.97
50790;BME280;37287;47.554;7.844;2023-07-20T11:29:49;97630.75;;;26.21;46.85
50790;BME280;37287;47.554;7.844;2023-07-20T11:32:24;97628.03;;;26.26;46.59
50790;BME280;37287;47.554;7.844;2023-07-20T11:34:51;97623.44;;;26.44;46.13
50790;BME280;37287;47.554;7.844;2023-07-20T11:37:18;97616.56;;;26.66;45.92
50790;BME280;37287;47.554;7.844;2023-07-20T11:39:46;97622.09;;;26.66;45.97
50790;BME280;37287;47.554;7.844;2023-07-20T11:42:13;97616.94;;;26.79;45.56
50790;BME280;37287;47.554;7.844;2023-07-20T11:45:05;97612.25;;;26.91;44.97
50790;BME280;37287;47.554;7.844;2023-07-20T11:47:33;97620.56;;;26.91;45.03
50790;BME280;37287;47.554;7.844;2023-07-20T11:50:03;97612.53;;;26.67;45.54
50790;BME280;37287;47.554;7.844;2023-07-20T11:52:30;97603.13;;;26.90;45.08
50790;BME280;37287;47.554;7.844;2023-07-20T11:54:59;97602.47;;;27.01;45.38
50790;BME280;37287;47.554;7.844;2023-07-20T11:57:28;97600.94;;;27.00;45.15
50790;BME280;37287;47.554;7.844;2023-07-20T11:59:56;97599.72;;;26.75;45.92
50790;BME280;37287;47.554;7.844;2023-07-20T12:02:29;97590.44;;;26.52;45.89
50790;BME280;37287;47.554;7.844;2023-07-20T12:04:57;97588.44;;;26.58;46.17
50790;BME280;37287;47.554;7.844;2023-07-20T12:07:27;97596.25;;;26.80;45.54
50790;BME280;37287;47.554;7.844;2023-07-20T12:10:10;97594.34;;;26.98;44.19
50790;BME280;37287;47.554;7.844;2023-07-20T12:12:41;97583.44;;;27.26;44.36
50790;BME280;37287;47.554;7.844;2023-07-20T12:15:21;97587.75;;;27.33;43.30
50790;BME280;37287;47.554;7.844;2023-07-20T12:17:56;97584.81;;;27.42;44.20
50790;BME280;37287;47.554;7.844;2023-07-20T12:20:38;97578.50;;;27.47;42.00
50790;BME280;37287;47.554;7.844;2023-07-20T12:23:08;97580.56;;;27.52;43.94
50790;BME280;37287;47.554;7.844;2023-07-20T12:25:46;97571.72;;;27.59;42.47
50790;BME280;37287;47.554;7.844;2023-07-20T12:28:15;97572.22;;;27.52;44.69
50790;BME280;37287;47.554;7.844;2023-07-20T12:30:43;97581.59;;;27.17;44.00
50790;BME280;37287;47.554;7.844;2023-07-20T12:33:11;97575.84;;;26.89;45.33
50790;BME280;37287;47.554;7.844;2023-07-20T12:35:45;97563.38;;;26.73;45.30
50790;BME280;37287;47.554;7.844;2023-07-20T12:38:14;97564.16;;;26.79;45.36
50790;BME280;37287;47.554;7.844;2023-07-20T12:40:41;97567.69;;;27.17;44.93
50790;BME280;37287;47.554;7.844;2023-07-20T12:43:10;97567.63;;;27.06;44.91
50790;BME280;37287;47.554;7.844;2023-07-20T12:45:37;97548.63;;;27.36;44.35
50790;BME280;37287;47.554;7.844;2023-07-20T12:48:04;97556.81;;;27.57;44.07
50790;BME280;37287;47.554;7.844;2023-07-20T12:50:30;97554.03;;;27.62;43.45
50790;BME280;37287;47.554;7.844;2023-07-20T12:52:57;97549.41;;;27.37;44.00
50790;BME280;37287;47.554;7.844;2023-07-20T12:55:24;97553.03;;;27.11;44.62
50790;BME280;37287;47.554;7.844;2023-07-20T12:57:52;97546.69;;;27.05;44.95
50790;BME280;37287;47.554;7.844;2023-07-20T13:00:19;97550.06;;;26.83;44.71
50790;BME280;37287;47.554;7.844;2023-07-20T13:02:45;97536.00;;;26.98;44.30
50790;BME280;37287;47.554;7.844;2023-07-20T13:05:13;97541.50;;;26.86;44.64
50790;BME280;37287;47.554;7.844;2023-07-20T13:07:41;97532.94;;;26.58;45.08
50790;BME280;37287;47.554;7.844;2023-07-20T13:10:11;97527.28;;;26.73;44.64
50790;BME280;37287;47.554;7.844;2023-07-20T13:12:38;97533.69;;;26.90;44.09
50790;BME280;37287;47.554;7.844;2023-07-20T13:15:06;97527.75;;;27.09;43.81
50790;BME280;37287;47.554;7.844;2023-07-20T13:17:38;97523.97;;;27.06;43.15
50790;BME280;37287;47.554;7.844;2023-07-20T13:20:09;97529.13;;;27.31;42.84
50790;BME280;37287;47.554;7.844;2023-07-20T13:22:40;97530.06;;;27.16;42.58
50790;BME280;37287;47.554;7.844;2023-07-20T13:25:07;97519.41;;;27.09;43.75
50790;BME280;37287;47.554;7.844;2023-07-20T13:27:34;97519.25;;;27.29;43.31
50790;BME280;37287;47.554;7.844;2023-07-20T13:30:01;97516.56;;;27.41;43.14